Time;durP1;ratioP1;P1;durP2;ratioP2;P2;SDS_P1;SDS_P2;PMS_P1;PMS_P2;Temp;Humidity;BMP_temperature;BMP_pressure;BME280_temperature;BME280_humidity;BME280_pressure;Samples;Min_cycle;Max_cycle;Signal;HPM_P1;HPM_P2
2023/12/28 00:00:11;;;;;;;;;;;;;;;13.10;61.74;99868.72;2090064;28;20070;-61
2023/12/28 00:01:12;;;;;;;;;;;;;;;13.09;62.01;99875.00;2090884;28;20031;-63
2023/12/28 00:02:14;;;;;;;;;;;;;;;13.10;61.65;99872.22;2090944;28;21794;-63
2023/12/28 00:03:14;;;;;;;;;;;;;;;13.07;61.71;99864.53;2094018;28;19921;-62
2023/12/28 00:04:15;;;;;;;;;;;;;;;13.07;61.83;99866.34;2092358;28;19977;-62
2023/12/28 00:05:16;;;;;;;;;;;;;;;13.08;61.59;99863.53;2091981;28;19920;-62
2023/12/28 00:06:17;;;;;;;;;;;;;;;13.09;61.79;99864.38;2093206;28;19936;-61
2023/12/28 00:07:19;;;;;;;;;;;;;;;13.09;61.95;99859.91;2093896;28;19924;-62
2023/12/28 00:08:19;;;;;;;;;;;;;;;13.08;61.74;99858.19;2092926;28;19920;-62
2023/12/28 00:09:21;;;;;;;;;;;;;;;13.07;61.69;99856.53;2093045;28;19963;-62
2023/12/28 00:10:21;;;;;;;;;;;;;;;13.08;61.75;99857.38;2092780;28;19932;-62
2023/12/28 00:11:23;;;;;;;;;;;;;;;13.06;61.85;99865.47;2093823;28;20008;-63
2023/12/28 00:12:25;;;;;;;;;;;;;;;13.06;61.92;99857.50;2090692;28;19928;-65
2023/12/28 00:13:25;;;;;;;;;;;;;;;13.07;61.74;99861.84;2092085;28;20590;-63
2023/12/28 00:14:27;;;;;;;;;;;;;;;13.07;61.83;99861.84;2093528;28;19936;-63
2023/12/28 00:15:28;;;;;;;;;;;;;;;13.08;61.67;99860.88;2093038;28;20315;-62
2023/12/28 00:16:32;;;;;;;;;;;;;;;13.07;61.73;99861.84;2091650;28;19960;-62
2023/12/28 00:17:33;;;;;;;;;;;;;;;13.07;61.79;99859.19;2092296;28;19931;-63
2023/12/28 00:18:34;;;;;;;;;;;;;;;13.08;61.72;99860.88;2093800;28;19943;-62
2023/12/28 00:19:35;;;;;;;;;;;;;;;13.07;61.76;99856.53;2092112;28;19924;-63
2023/12/28 00:20:36;;;;;;;;;;;;;;;13.06;61.89;99862.81;2091758;28;19964;-64
2023/12/28 00:21:37;;;;;;;;;;;;;;;13.07;61.65;99859.19;2093689;28;19929;-62
2023/12/28 00:22:38;;;;;;;;;;;;;;;13.08;61.67;99868.03;2090380;28;19925;-62
2023/12/28 00:23:40;;;;;;;;;;;;;;;13.08;61.82;99863.53;2090846;28;19956;-63
2023/12/28 00:24:40;;;;;;;;;;;;;;;13.07;61.65;99875.16;2092028;28;20283;-64
2023/12/28 00:25:42;;;;;;;;;;;;;;;13.07;61.95;99866.34;2089073;28;19975;-62
2023/12/28 00:26:43;;;;;;;;;;;;;;;13.07;61.70;99861.84;2090966;28;19925;-63
2023/12/28 00:27:45;;;;;;;;;;;;;;;13.09;61.64;99867.91;2091620;28;19985;-62
2023/12/28 00:28:47;;;;;;;;;;;;;;;13.08;61.76;99862.69;2089833;28;20370;-62
2023/12/28 00:29:48;;;;;;;;;;;;;;;13.07;61.79;99869.00;2092408;28;19920;-64
2023/12/28 00:30:49;;;;;;;;;;;;;;;13.06;61.74;99862.81;2092484;28;19921;-61
2023/12/28 00:31:50;;;;;;;;;;;;;;;13.06;61.68;99868.13;2093090;28;19927;-64
2023/12/28 00:32:50;;;;;;;;;;;;;;;13.07;61.84;99863.69;2091484;28;20371;-62
2023/12/28 00:33:52;;;;;;;;;;;;;;;13.06;61.88;99865.47;2092789;28;19932;-63
2023/12/28 00:34:52;;;;;;;;;;;;;;;13.08;61.78;99868.84;2092281;28;19924;-63
2023/12/28 00:35:54;;;;;;;;;;;;;;;13.07;61.61;99861.84;2092517;28;19992;-63
2023/12/28 00:36:55;;;;;;;;;;;;;;;13.06;61.63;99860.16;2090195;28;19921;-63
2023/12/28 00:37:56;;;;;;;;;;;;;;;13.05;61.91;99858.47;2088374;28;20007;-64
2023/12/28 00:38:57;;;;;;;;;;;;;;;13.08;61.60;99865.34;2089059;28;19924;-62
2023/12/28 00:39:57;;;;;;;;;;;;;;;13.07;61.61;99863.69;2091627;28;19952;-63
2023/12/28 00:40:59;;;;;;;;;;;;;;;13.08;61.63;99868.84;2091041;28;19932;-62
2023/12/28 00:42:00;;;;;;;;;;;;;;;13.06;61.72;99865.47;2091880;28;19981;-62
2023/12/28 00:43:03;;;;;;;;;;;;;;;13.07;61.70;99866.34;2090985;28;19925;-62
2023/12/28 00:44:05;;;;;;;;;;;;;;;13.06;61.89;99860.16;2090724;28;20607;-63
2023/12/28 00:45:07;;;;;;;;;;;;;;;13.07;61.63;99861.84;2089500;28;19924;-62
2023/12/28 00:46:07;;;;;;;;;;;;;;;13.07;61.69;99864.53;2092615;28;19946;-63
2023/12/28 00:47:09;;;;;;;;;;;;;;;13.07;61.87;99867.19;2092916;28;20352;-63
2023/12/28 00:48:09;;;;;;;;;;;;;;;13.07;61.83;99864.53;2089907;28;20402;-63
2023/12/28 00:49:11;;;;;;;;;;;;;;;13.08;61.77;99868.03;2091252;28;20038;-64
2023/12/28 00:50:12;;;;;;;;;;;;;;;13.05;61.87;99866.47;2088943;28;19921;-63
2023/12/28 00:51:13;;;;;;;;;;;;;;;13.08;61.74;99868.03;2092721;28;20339;-63
2023/12/28 00:52:14;;;;;;;;;;;;;;;13.07;61.66;99866.34;2090131;28;19982;-60
2023/12/28 00:53:15;;;;;;;;;;;;;;;13.07;61.77;99869.84;2093061;28;19920;-61
2023/12/28 00:54:17;;;;;;;;;;;;;;;13.08;61.53;99860.88;2090977;28;19927;-61
2023/12/28 00:55:17;;;;;;;;;;;;;;;13.08;61.85;99862.69;2093217;28;20303;-61
2023/12/28 00:56:20;;;;;;;;;;;;;;;13.07;61.87;99861.03;2087691;28;19955;-63
2023/12/28 00:57:21;;;;;;;;;;;;;;;13.07;61.67;99853.03;2091720;28;19962;-63
2023/12/28 00:58:24;;;;;;;;;;;;;;;13.05;61.83;99853.16;2092565;28;20409;-63
2023/12/28 00:59:24;;;;;;;;;;;;;;;13.07;61.65;99861.03;2090752;28;19924;-62
2023/12/28 01:00:25;;;;;;;;;;;;;;;13.06;61.81;99860.16;2091396;28;19975;-62
2023/12/28 01:01:26;;;;;;;;;;;;;;;13.07;61.59;99861.03;2090073;28;19920;-62
2023/12/28 01:02:27;;;;;;;;;;;;;;;13.07;61.63;99861.03;2091685;28;20136;-62
2023/12/28 01:03:29;;;;;;;;;;;;;;;13.07;61.66;99864.53;2093125;28;20383;-62
2023/12/28 01:04:29;;;;;;;;;;;;;;;13.07;61.56;99858.34;2090611;28;19920;-63
2023/12/28 01:05:30;;;;;;;;;;;;;;;13.07;61.60;99856.53;2091550;28;20003;-62
2023/12/28 01:06:31;;;;;;;;;;;;;;;13.07;61.55;99859.19;2090948;28;20011;-62
2023/12/28 01:07:32;;;;;;;;;;;;;;;13.06;61.87;99862.81;2092533;28;19921;-62
2023/12/28 01:08:34;;;;;;;;;;;;;;;13.07;61.78;99856.53;2088843;28;20007;-62
2023/12/28 01:09:35;;;;;;;;;;;;;;;13.08;61.53;99858.19;2092210;28;19939;-63
2023/12/28 01:10:37;;;;;;;;;;;;;;;13.08;61.65;99860.03;2090733;28;19928;-63
2023/12/28 01:11:37;;;;;;;;;;;;;;;13.05;61.76;99866.47;2090048;28;19928;-63
2023/12/28 01:12:38;;;;;;;;;;;;;;;13.06;61.74;99857.50;2091610;28;19931;-63
2023/12/28 01:13:41;;;;;;;;;;;;;;;13.05;61.58;99858.47;2091216;28;19924;-63
2023/12/28 01:14:41;;;;;;;;;;;;;;;13.07;61.75;99856.53;2088602;28;19925;-63
2023/12/28 01:15:42;;;;;;;;;;;;;;;13.05;61.81;99850.50;2090821;28;20398;-61
2023/12/28 01:16:44;;;;;;;;;;;;;;;13.06;61.59;99852.16;2091867;28;19983;-63
2023/12/28 01:17:44;;;;;;;;;;;;;;;13.07;61.59;99851.19;2090203;28;20540;-63
2023/12/28 01:18:46;;;;;;;;;;;;;;;13.08;61.78;99857.38;2091678;28;19939;-63
2023/12/28 01:19:46;;;;;;;;;;;;;;;13.07;61.87;99850.38;2090487;28;19925;-63
2023/12/28 01:20:48;;;;;;;;;;;;;;;13.05;61.72;99852.31;2087334;28;19985;-62
2023/12/28 01:21:49;;;;;;;;;;;;;;;13.05;61.81;99847.81;2091559;28;20395;-62
2023/12/28 01:22:50;;;;;;;;;;;;;;;13.06;61.67;99848.66;2090721;28;20011;-63
2023/12/28 01:23:51;;;;;;;;;;;;;;;13.06;61.74;99854.81;2091890;28;20439;-62
2023/12/28 01:24:53;;;;;;;;;;;;;;;13.05;61.61;99852.31;2089560;28;19927;-63
2023/12/28 01:25:55;;;;;;;;;;;;;;;13.05;61.72;99857.63;2091989;28;19964;-61
2023/12/28 01:26:56;;;;;;;;;;;;;;;13.05;61.79;99858.47;2091570;28;19959;-62
2023/12/28 01:27:57;;;;;;;;;;;;;;;13.05;61.75;99858.47;2090421;28;19920;-63
2023/12/28 01:29:01;;;;;;;;;;;;;;;13.06;61.77;99860.16;2091887;28;19928;-61
2023/12/28 01:30:02;;;;;;;;;;;;;;;13.07;61.64;99858.34;2092630;28;20298;-64
2023/12/28 01:31:04;;;;;;;;;;;;;;;13.05;61.82;99860.31;2090921;28;19960;-63
2023/12/28 01:32:05;;;;;;;;;;;;;;;13.05;61.78;99863.81;2089498;28;20019;-62
2023/12/28 01:33:07;;;;;;;;;;;;;;;13.04;61.60;99859.47;2088668;28;19924;-63
2023/12/28 01:34:09;;;;;;;;;;;;;;;13.04;61.75;99859.47;2090804;28;19920;-61
2023/12/28 01:35:10;;;;;;;;;;;;;;;13.04;61.78;99859.47;2091693;28;19924;-61
2023/12/28 01:36:17;;;;;;;;;;;;;;;13.05;61.79;99857.63;2092609;28;19928;-63
2023/12/28 01:37:19;;;;;;;;;;;;;;;13.06;61.90;99865.47;2092886;28;19993;-62
2023/12/28 01:38:20;;;;;;;;;;;;;;;13.06;61.63;99864.63;2093204;28;19931;-61
2023/12/28 01:39:21;;;;;;;;;;;;;;;13.06;61.55;99865.47;2090913;28;19964;-63
2023/12/28 01:40:22;;;;;;;;;;;;;;;13.07;61.78;99866.34;2090722;28;19920;-63
2023/12/28 01:41:24;;;;;;;;;;;;;;;13.04;61.83;99856.81;2092382;28;19964;-63
2023/12/28 01:42:24;;;;;;;;;;;;;;;13.05;61.75;99866.47;2089911;28;20318;-62
2023/12/28 01:43:26;;;;;;;;;;;;;;;13.05;61.63;99861.13;2090089;28;19971;-63
2023/12/28 01:44:28;;;;;;;;;;;;;;;13.04;61.84;99856.81;2091912;28;19920;-63
2023/12/28 01:45:29;;;;;;;;;;;;;;;13.05;61.76;99863.81;2092390;28;20402;-61
2023/12/28 01:46:31;;;;;;;;;;;;;;;13.06;61.67;99860.16;2090355;28;20387;-62
2023/12/28 01:47:32;;;;;;;;;;;;;;;13.04;61.88;99856.81;2090936;28;20015;-63
2023/12/28 01:48:33;;;;;;;;;;;;;;;13.05;61.88;99858.47;2091812;28;19924;-63
2023/12/28 01:49:35;;;;;;;;;;;;;;;13.06;61.69;99857.50;2079607;28;19924;-64
2023/12/28 01:50:37;;;;;;;;;;;;;;;13.06;61.84;99862.81;2090642;28;19920;-63
2023/12/28 01:51:38;;;;;;;;;;;;;;;13.05;61.68;99855.81;2089745;28;19935;-63
2023/12/28 01:52:38;;;;;;;;;;;;;;;13.06;61.52;99859.31;2091276;28;19963;-64
2023/12/28 01:53:40;;;;;;;;;;;;;;;13.06;61.69;99860.16;2090918;28;19928;-63
2023/12/28 01:54:41;;;;;;;;;;;;;;;13.05;61.60;99857.63;2091343;28;20306;-62
2023/12/28 01:55:43;;;;;;;;;;;;;;;13.04;61.71;99864.78;2091546;28;19971;-62
2023/12/28 01:56:44;;;;;;;;;;;;;;;13.06;61.81;99854.81;2092234;28;20023;-62
2023/12/28 01:57:45;;;;;;;;;;;;;;;13.07;61.67;99861.84;2091899;28;19932;-62
2023/12/28 01:58:48;;;;;;;;;;;;;;;13.06;61.91;99854.81;2090146;28;19931;-63
2023/12/28 01:59:51;;;;;;;;;;;;;;;13.06;61.92;99859.31;2093026;28;19929;-62
2023/12/28 02:00:52;;;;;;;;;;;;;;;13.04;61.82;99856.81;2090878;28;19924;-63
2023/12/28 02:01:54;;;;;;;;;;;;;;;13.04;61.88;99846.16;2092367;28;19971;-62
2023/12/28 02:02:55;;;;;;;;;;;;;;;13.05;61.73;99855.81;2090257;28;19924;-63
2023/12/28 02:03:56;;;;;;;;;;;;;;;13.05;61.64;99852.31;2092209;28;20470;-63
2023/12/28 02:04:58;;;;;;;;;;;;;;;13.06;61.68;99852.16;2092854;28;19924;-63
2023/12/28 02:05:59;;;;;;;;;;;;;;;13.06;61.58;99849.50;2092279;28;19935;-64
2023/12/28 02:07:00;;;;;;;;;;;;;;;13.06;61.72;99849.50;2092226;28;20459;-63
2023/12/28 02:08:02;;;;;;;;;;;;;;;13.04;61.72;99843.50;2091837;28;19924;-62
2023/12/28 02:09:02;;;;;;;;;;;;;;;13.04;61.68;99840.81;2090729;28;19947;-62
2023/12/28 02:10:04;;;;;;;;;;;;;;;13.04;61.75;99839.97;2092819;28;19920;-62
2023/12/28 02:11:05;;;;;;;;;;;;;;;13.04;61.79;99840.81;2090958;28;19928;-63
2023/12/28 02:12:07;;;;;;;;;;;;;;;13.05;61.87;99842.50;2091782;28;20367;-62
2023/12/28 02:13:08;;;;;;;;;;;;;;;13.07;61.67;99843.22;2091810;28;19920;-62
2023/12/28 02:14:10;;;;;;;;;;;;;;;13.04;61.79;99835.50;2093175;28;19928;-62
2023/12/28 02:15:12;;;;;;;;;;;;;;;13.04;61.67;99834.63;2090219;28;20399;-62
2023/12/28 02:16:15;;;;;;;;;;;;;;;13.05;61.60;99836.34;2091112;28;19924;-62
2023/12/28 02:17:19;;;;;;;;;;;;;;;13.03;61.89;99839.13;2089936;28;19928;-63
2023/12/28 02:18:24;;;;;;;;;;;;;;;13.03;61.88;99841.78;2091321;28;19955;-62
2023/12/28 02:19:30;;;;;;;;;;;;;;;13.03;61.98;99839.13;2091302;28;19924;-61
2023/12/28 02:20:33;;;;;;;;;;;;;;;13.03;61.77;99835.63;2090724;28;20403;-62
2023/12/28 02:21:34;;;;;;;;;;;;;;;13.03;61.70;99836.47;2089356;28;19928;-62
2023/12/28 02:22:35;;;;;;;;;;;;;;;13.02;61.66;99824.13;2093010;28;19959;-63
2023/12/28 02:23:36;;;;;;;;;;;;;;;13.03;61.66;99830.28;2090142;28;19965;-63
2023/12/28 02:26:07;;;;;;;;;;;;;;;13.04;61.80;99829.31;2100902;27;19942;-64
2023/12/28 02:27:08;;;;;;;;;;;;;;;13.04;61.62;99830.16;2092484;28;20319;-63
2023/12/28 02:28:09;;;;;;;;;;;;;;;13.05;61.78;99825.69;2090996;28;19959;-63
2023/12/28 02:29:10;;;;;;;;;;;;;;;13.02;61.84;99834.78;2091995;28;19940;-61
2023/12/28 02:30:11;;;;;;;;;;;;;;;13.04;61.88;99822.19;2089242;28;19983;-63
2023/12/28 02:31:15;;;;;;;;;;;;;;;13.04;61.68;99824.84;2091040;28;20507;-62
2023/12/28 02:32:17;;;;;;;;;;;;;;;13.04;61.63;99824.84;2089066;28;19936;-63
2023/12/28 02:33:20;;;;;;;;;;;;;;;13.04;61.64;99830.16;2090600;28;19925;-63
2023/12/28 02:34:25;;;;;;;;;;;;;;;13.03;61.79;99825.81;2088080;28;19933;-63
2023/12/28 02:35:30;;;;;;;;;;;;;;;13.03;61.74;99828.47;2089142;28;19929;-62
2023/12/28 02:36:31;;;;;;;;;;;;;;;13.04;61.69;99823.97;2093615;28;19925;-62
2023/12/28 02:37:34;;;;;;;;;;;;;;;13.03;61.70;99827.63;2089717;28;19963;-63
2023/12/28 02:38:36;;;;;;;;;;;;;;;13.02;61.74;99826.78;2089360;28;19925;-63
2023/12/28 02:39:39;;;;;;;;;;;;;;;13.05;61.73;99825.69;2089337;28;19936;-63
2023/12/28 02:40:41;;;;;;;;;;;;;;;13.03;61.72;99828.47;2093433;28;19925;-63
2023/12/28 02:41:45;;;;;;;;;;;;;;;13.04;61.69;99823.97;2090291;28;19924;-62
2023/12/28 02:42:45;;;;;;;;;;;;;;;13.04;61.74;99827.50;2089672;28;19929;-63
2023/12/28 02:43:46;;;;;;;;;;;;;;;13.05;61.86;99823.03;2089419;28;19964;-63
2023/12/28 02:44:48;;;;;;;;;;;;;;;13.05;61.61;99826.53;2089155;28;19925;-63
2023/12/28 02:45:49;;;;;;;;;;;;;;;13.04;61.43;99822.19;2090220;28;20419;-63
2023/12/28 02:46:50;;;;;;;;;;;;;;;13.05;61.72;99823.84;2089811;28;19963;-63
2023/12/28 02:47:51;;;;;;;;;;;;;;;13.04;61.68;99829.31;2086995;28;19936;-63
2023/12/28 02:48:57;;;;;;;;;;;;;;;13.06;61.76;99822.03;2089946;28;20012;-64
2023/12/28 02:49:59;;;;;;;;;;;;;;;13.03;61.71;99823.13;2088686;28;19925;-63
2023/12/28 02:51:00;;;;;;;;;;;;;;;13.04;61.77;99823.97;2090281;28;19928;-64
2023/12/28 02:52:01;;;;;;;;;;;;;;;13.04;61.57;99821.31;2088768;28;19929;-63
2023/12/28 02:53:02;;;;;;;;;;;;;;;13.04;61.57;99823.97;2089617;28;19968;-64
2023/12/28 02:54:03;;;;;;;;;;;;;;;13.02;61.77;99820.63;2091031;28;19976;-63
2023/12/28 02:55:04;;;;;;;;;;;;;;;13.04;61.57;99814.19;2088296;28;20308;-63
2023/12/28 02:56:05;;;;;;;;;;;;;;;13.04;61.79;99822.19;2089988;28;19932;-62
2023/12/28 02:57:08;;;;;;;;;;;;;;;13.03;61.78;99817.81;2093332;28;19936;-63
2023/12/28 02:58:09;;;;;;;;;;;;;;;13.04;61.71;99830.16;2090260;28;19936;-62
2023/12/28 02:59:11;;;;;;;;;;;;;;;13.05;61.52;99833.66;2086857;28;20019;-63
2023/12/28 03:00:12;;;;;;;;;;;;;;;13.03;61.81;99823.13;2087696;28;19936;-61
2023/12/28 03:01:13;;;;;;;;;;;;;;;13.04;61.65;99826.63;2086506;28;20423;-63
2023/12/28 03:02:14;;;;;;;;;;;;;;;13.03;61.70;99825.81;2091972;28;19925;-63
2023/12/28 03:03:16;;;;;;;;;;;;;;;13.04;61.89;99823.97;2091126;28;19982;-63
2023/12/28 03:04:16;;;;;;;;;;;;;;;13.04;61.60;99822.19;2088435;28;19932;-61
2023/12/28 03:05:18;;;;;;;;;;;;;;;13.05;61.71;99821.19;2090334;28;20023;-63
2023/12/28 03:06:19;;;;;;;;;;;;;;;13.04;61.77;99819.53;2087343;28;19929;-64
2023/12/28 03:07:19;;;;;;;;;;;;;;;13.04;61.60;99814.19;2089808;28;19972;-64
2023/12/28 03:08:21;;;;;;;;;;;;;;;13.05;61.58;99815.88;2090324;28;19940;-64
2023/12/28 03:09:21;;;;;;;;;;;;;;;13.02;61.67;99823.28;2090123;28;20792;-64
2023/12/28 03:10:23;;;;;;;;;;;;;;;13.02;61.60;99821.47;2088984;28;19972;-63
2023/12/28 03:11:23;;;;;;;;;;;;;;;13.02;61.67;99823.28;2091436;28;20388;-63
2023/12/28 03:12:26;;;;;;;;;;;;;;;13.04;61.67;99821.31;2098159;28;20004;-64
2023/12/28 03:13:27;;;;;;;;;;;;;;;13.04;61.57;99819.53;2091369;28;19925;-64
2023/12/28 03:14:29;;;;;;;;;;;;;;;13.03;61.73;99825.81;2087348;28;20024;-63
2023/12/28 03:15:29;;;;;;;;;;;;;;;13.04;61.77;99821.31;2087274;28;19928;-63
2023/12/28 03:16:31;;;;;;;;;;;;;;;13.03;61.76;99824.97;2089204;28;19971;-63
2023/12/28 03:17:32;;;;;;;;;;;;;;;13.05;61.54;99828.34;2091492;28;19935;-63
2023/12/28 03:18:34;;;;;;;;;;;;;;;13.03;61.70;99833.78;2089092;28;20001;-63
2023/12/28 03:19:36;;;;;;;;;;;;;;;13.01;61.85;99825.13;2092900;28;19948;-63
2023/12/28 03:20:37;;;;;;;;;;;;;;;13.02;61.75;99821.47;2090033;28;20602;-64
2023/12/28 03:21:38;;;;;;;;;;;;;;;13.02;61.82;99816.16;2091550;28;21966;-63
2023/12/28 03:22:40;;;;;;;;;;;;;;;13.02;61.81;99826.78;2089132;28;19972;-64
2023/12/28 03:23:41;;;;;;;;;;;;;;;13.02;61.72;99825.97;2088170;28;19976;-63
2023/12/28 03:24:42;;;;;;;;;;;;;;;13.02;61.86;99823.28;2089275;28;19932;-64
2023/12/28 03:25:43;;;;;;;;;;;;;;;13.03;61.61;99824.97;2088738;28;19931;-64
2023/12/28 03:26:44;;;;;;;;;;;;;;;13.02;61.62;99820.63;2094590;28;20386;-64
2023/12/28 03:27:46;;;;;;;;;;;;;;;13.01;61.71;99824.25;2097252;28;19932;-63
2023/12/28 03:28:48;;;;;;;;;;;;;;;13.01;61.77;99827.78;2098160;28;19931;-64
2023/12/28 03:29:49;;;;;;;;;;;;;;;13.01;61.88;99830.44;2098553;28;19929;-61
2023/12/28 03:30:51;;;;;;;;;;;;;;;13.01;61.83;99825.13;2097105;28;19948;-63
2023/12/28 03:31:51;;;;;;;;;;;;;;;13.02;61.45;99826.78;2098070;28;19928;-64
2023/12/28 03:32:53;;;;;;;;;;;;;;;13.02;61.70;99826.78;2095488;28;19956;-62
2023/12/28 03:33:54;;;;;;;;;;;;;;;13.03;61.61;99824.97;2101681;28;19932;-64
2023/12/28 03:34:55;;;;;;;;;;;;;;;13.02;61.70;99832.13;2098056;27;19963;-63
2023/12/28 03:35:56;;;;;;;;;;;;;;;13.02;61.58;99824.13;2096386;28;20412;-61
2023/12/28 03:36:57;;;;;;;;;;;;;;;13.03;61.57;99827.63;2097019;28;19925;-63
2023/12/28 03:37:59;;;;;;;;;;;;;;;13.05;61.60;99825.69;2092210;28;19925;-63
2023/12/28 03:38:59;;;;;;;;;;;;;;;13.03;61.75;99823.13;2092314;28;20552;-63
2023/12/28 03:40:01;;;;;;;;;;;;;;;13.02;61.60;99824.13;2091245;28;20027;-62
2023/12/28 03:41:02;;;;;;;;;;;;;;;13.01;61.64;99822.47;2091086;28;19933;-63
2023/12/28 03:42:04;;;;;;;;;;;;;;;13.02;61.85;99826.78;2092373;28;19928;-62
2023/12/28 03:43:06;;;;;;;;;;;;;;;13.04;61.51;99821.31;2092969;28;19936;-64
2023/12/28 03:44:07;;;;;;;;;;;;;;;13.02;61.63;99826.78;2091437;28;19998;-63
2023/12/28 03:45:08;;;;;;;;;;;;;;;13.01;61.86;99824.25;2093435;28;20434;-63
2023/12/28 03:46:09;;;;;;;;;;;;;;;13.02;61.83;99829.47;2089796;28;19955;-64
2023/12/28 03:47:11;;;;;;;;;;;;;;;13.02;61.72;99824.13;2092335;28;19924;-63
2023/12/28 03:48:11;;;;;;;;;;;;;;;13.01;61.57;99819.78;2090826;28;19986;-62
2023/12/28 03:49:13;;;;;;;;;;;;;;;13.02;61.62;99818.81;2091898;28;19951;-63
2023/12/28 03:50:14;;;;;;;;;;;;;;;13.02;61.79;99824.13;2089962;28;19936;-63
2023/12/28 03:51:15;;;;;;;;;;;;;;;13.04;61.70;99818.66;2093175;28;19972;-63
2023/12/28 03:52:16;;;;;;;;;;;;;;;13.02;61.58;99824.13;2092925;28;19925;-63
2023/12/28 03:53:18;;;;;;;;;;;;;;;13.01;61.62;99824.25;2093652;28;19950;-64
2023/12/28 03:54:18;;;;;;;;;;;;;;;13.02;61.76;99821.47;2092030;28;19928;-64
2023/12/28 03:55:20;;;;;;;;;;;;;;;13.00;61.75;99812.78;2093003;28;19968;-64
2023/12/28 03:56:21;;;;;;;;;;;;;;;13.00;61.66;99820.75;2091515;28;19924;-64
2023/12/28 03:57:24;;;;;;;;;;;;;;;13.02;61.80;99809.97;2092767;28;19932;-61
2023/12/28 03:58:26;;;;;;;;;;;;;;;13.01;61.58;99819.78;2091746;28;19928;-63
2023/12/28 03:59:28;;;;;;;;;;;;;;;13.02;61.79;99821.47;2093396;28;19948;-63
2023/12/28 04:00:28;;;;;;;;;;;;;;;13.01;61.54;99819.78;2090468;28;19924;-62
2023/12/28 04:01:29;;;;;;;;;;;;;;;13.02;61.69;99821.47;2092296;28;19978;-64
2023/12/28 04:02:31;;;;;;;;;;;;;;;13.02;61.67;99818.81;2093971;28;19928;-63
2023/12/28 04:03:32;;;;;;;;;;;;;;;13.01;61.54;99817.13;2094527;28;19932;-63
2023/12/28 04:04:34;;;;;;;;;;;;;;;13.03;61.76;99811.66;2093286;28;20345;-63
2023/12/28 04:05:34;;;;;;;;;;;;;;;13.01;61.68;99811.81;2092723;28;19931;-63
2023/12/28 04:06:36;;;;;;;;;;;;;;;13.01;61.64;99814.47;2093919;28;19972;-64
2023/12/28 04:07:36;;;;;;;;;;;;;;;12.97;61.66;99807.72;2093163;28;19932;-63
2023/12/28 04:08:37;;;;;;;;;;;;;;;13.00;61.64;99815.44;2092646;28;19991;-63
2023/12/28 04:09:39;;;;;;;;;;;;;;;13.02;61.55;99807.31;2088836;28;19928;-63
2023/12/28 04:10:39;;;;;;;;;;;;;;;13.02;61.66;99804.66;2094203;28;21327;-63
2023/12/28 04:11:40;;;;;;;;;;;;;;;13.01;61.67;99806.47;2091727;28;19979;-63
2023/12/28 04:12:41;;;;;;;;;;;;;;;13.00;61.84;99804.78;2090518;28;19975;-64
2023/12/28 04:13:43;;;;;;;;;;;;;;;13.02;61.68;99809.97;2093720;28;20302;-62
2023/12/28 04:14:44;;;;;;;;;;;;;;;13.02;61.55;99807.31;2089775;28;19939;-61
2023/12/28 04:15:45;;;;;;;;;;;;;;;13.00;61.60;99803.94;2085392;28;20007;-60
2023/12/28 04:16:46;;;;;;;;;;;;;;;13.00;61.76;99802.13;2087780;28;20411;-63
2023/12/28 04:17:48;;;;;;;;;;;;;;;13.01;61.69;99808.28;2089625;28;20019;-62
2023/12/28 04:18:48;;;;;;;;;;;;;;;13.00;61.69;99804.78;2091940;28;19929;-63
2023/12/28 04:19:50;;;;;;;;;;;;;;;13.02;61.75;99813.47;2092963;28;19964;-64
2023/12/28 04:20:50;;;;;;;;;;;;;;;13.00;61.60;99807.44;2091979;28;19924;-63
2023/12/28 04:21:52;;;;;;;;;;;;;;;13.02;61.79;99804.66;2091748;28;19932;-62
2023/12/28 04:22:52;;;;;;;;;;;;;;;13.01;61.64;99811.81;2092111;28;19936;-63
2023/12/28 04:23:53;;;;;;;;;;;;;;;13.00;61.62;99799.44;2086224;28;19983;-62
2023/12/28 04:24:55;;;;;;;;;;;;;;;13.00;61.64;99806.59;2088645;28;19924;-64
2023/12/28 04:25:55;;;;;;;;;;;;;;;12.99;61.73;99802.28;2094396;28;19944;-62
2023/12/28 04:26:57;;;;;;;;;;;;;;;13.00;61.66;99812.78;2094350;28;20307;-61
2023/12/28 04:27:58;;;;;;;;;;;;;;;13.01;61.91;99810.94;2092105;28;20303;-62
2023/12/28 04:29:01;;;;;;;;;;;;;;;13.02;61.66;99813.47;2092195;28;19963;-62
2023/12/28 04:30:01;;;;;;;;;;;;;;;13.01;61.74;99814.47;2094143;28;19924;-63
2023/12/28 04:31:03;;;;;;;;;;;;;;;12.99;61.70;99813.75;2089667;28;20019;-63
2023/12/28 04:32:04;;;;;;;;;;;;;;;13.00;61.83;99815.44;2089877;28;19936;-64
2023/12/28 04:33:05;;;;;;;;;;;;;;;13.00;61.77;99811.94;2090971;28;21406;-62
2023/12/28 04:34:06;;;;;;;;;;;;;;;13.00;61.69;99810.09;2093483;28;20165;-63
2023/12/28 04:35:07;;;;;;;;;;;;;;;13.01;61.68;99819.78;2088347;28;20276;-62
2023/12/28 04:36:09;;;;;;;;;;;;;;;13.02;61.55;99815.31;2091622;28;20016;-64
2023/12/28 04:37:09;;;;;;;;;;;;;;;13.05;61.68;99817.69;2093404;28;19935;-61
2023/12/28 04:38:10;;;;;;;;;;;;;;;13.02;61.60;99813.47;2092220;28;19979;-64
2023/12/28 04:39:11;;;;;;;;;;;;;;;13.01;61.74;99818.94;2090907;28;20425;-63
2023/12/28 04:40:14;;;;;;;;;;;;;;;13.00;61.71;99815.44;2088930;28;19925;-62
2023/12/28 04:41:15;;;;;;;;;;;;;;;13.00;61.69;99815.44;2090067;28;19933;-64
2023/12/28 04:42:16;;;;;;;;;;;;;;;13.01;61.77;99818.94;2093524;28;20035;-64
2023/12/28 04:43:18;;;;;;;;;;;;;;;13.01;61.61;99814.47;2091027;28;19936;-63
2023/12/28 04:44:20;;;;;;;;;;;;;;;13.01;61.76;99821.59;2089784;28;19975;-62
2023/12/28 04:45:22;;;;;;;;;;;;;;;12.99;61.69;99820.91;2094442;28;19924;-62
2023/12/28 04:46:23;;;;;;;;;;;;;;;13.00;61.69;99822.59;2086784;28;19975;-63
2023/12/28 04:47:24;;;;;;;;;;;;;;;13.00;61.76;99818.09;2091603;28;19925;-63
2023/12/28 04:48:25;;;;;;;;;;;;;;;13.01;61.79;99824.25;2089738;28;19933;-63
2023/12/28 04:49:27;;;;;;;;;;;;;;;13.00;61.73;99823.41;2088608;28;20003;-64
2023/12/28 04:50:28;;;;;;;;;;;;;;;13.02;61.64;99815.31;2090342;28;20429;-62
2023/12/28 04:51:29;;;;;;;;;;;;;;;13.01;61.55;99817.13;2093501;28;19960;-62
2023/12/28 04:52:30;;;;;;;;;;;;;;;13.00;61.58;99812.78;2092453;28;19935;-63
2023/12/28 04:53:31;;;;;;;;;;;;;;;13.00;61.62;99810.09;2089774;28;19971;-62
2023/12/28 04:54:33;;;;;;;;;;;;;;;13.00;61.77;99812.78;2092584;28;19932;-64
2023/12/28 04:55:33;;;;;;;;;;;;;;;13.00;61.77;99812.78;2089075;28;20410;-64
2023/12/28 04:56:35;;;;;;;;;;;;;;;13.01;61.81;99808.28;2094275;28;20015;-63
2023/12/28 04:57:35;;;;;;;;;;;;;;;13.00;61.58;99807.44;2090427;28;19928;-64
2023/12/28 04:58:37;;;;;;;;;;;;;;;12.99;61.67;99810.25;2091418;28;19960;-63
2023/12/28 04:59:39;;;;;;;;;;;;;;;13.01;61.83;99803.81;2094332;28;19931;-63
2023/12/28 05:00:41;;;;;;;;;;;;;;;13.01;61.63;99803.81;2089879;28;20006;-63
2023/12/28 05:01:41;;;;;;;;;;;;;;;13.01;61.88;99798.50;2090306;28;19936;-63
2023/12/28 05:02:42;;;;;;;;;;;;;;;13.00;61.62;99804.78;2091300;28;19978;-63
2023/12/28 05:03:43;;;;;;;;;;;;;;;13.00;61.59;99804.78;2088018;28;19966;-64
2023/12/28 05:04:44;;;;;;;;;;;;;;;13.01;61.67;99810.94;2090843;28;19937;-63
2023/12/28 05:05:44;;;;;;;;;;;;;;;13.00;61.84;99801.28;2088893;28;20013;-64
2023/12/28 05:06:46;;;;;;;;;;;;;;;12.99;61.81;99797.78;2093043;28;19978;-63
2023/12/28 05:07:47;;;;;;;;;;;;;;;12.99;61.60;99797.78;2088181;28;19925;-63
2023/12/28 05:08:49;;;;;;;;;;;;;;;12.98;61.56;99804.06;2091524;28;20055;-62
2023/12/28 05:09:49;;;;;;;;;;;;;;;12.99;61.60;99804.94;2089714;28;19963;-61
2023/12/28 05:10:51;;;;;;;;;;;;;;;13.00;61.55;99799.44;2094997;28;19932;-62
2023/12/28 05:11:51;;;;;;;;;;;;;;;13.00;61.82;99795.94;2091137;28;19932;-61
2023/12/28 05:12:52;;;;;;;;;;;;;;;13.00;61.82;99791.47;2091312;28;20272;-62
2023/12/28 05:13:54;;;;;;;;;;;;;;;12.99;61.90;99784.47;2090916;28;19929;-63
2023/12/28 05:14:56;;;;;;;;;;;;;;;12.97;61.85;99781.94;2089401;28;20298;-62
2023/12/28 05:15:57;;;;;;;;;;;;;;;12.99;61.67;99778.31;2092847;28;19929;-62
2023/12/28 05:16:58;;;;;;;;;;;;;;;12.99;61.56;99779.13;2088843;28;19928;-62
2023/12/28 05:17:59;;;;;;;;;;;;;;;12.99;61.64;99778.31;2089936;28;19972;-62
2023/12/28 05:19:00;;;;;;;;;;;;;;;13.00;61.71;99779.97;2092342;28;19925;-62
2023/12/28 05:20:00;;;;;;;;;;;;;;;12.98;61.72;99774.78;2089342;28;19959;-63
2023/12/28 05:21:02;;;;;;;;;;;;;;;12.99;61.70;99772.97;2088107;28;20387;-62